In Rescue
 
Open Full Screen Window  High Contrast Mode
Wind Gusting 23 knots
17
May 19, 2019 2:07 PM EDT
Present Weather: Mist
Weather Information
Wind Direction
  040 °
Wind Speed
  17 kt (20 mph)
Wind Gust
  23 kt (26 mph)
Altimeter
29.70 in
Visibility
4 SM
Temperature
04° C
39° F
Dewpoint
03° C
37° F
Humidity
93%
1hr Rain Fall
00.00 in.
24hr Rain Fall
00.97 in.
Sky Condition
Overcast @ 200 ft
LIFR

METAR KSAW 191807Z AUTO 04017G23KT 4SM BR OVC002 04/03 A2970 RMK AO2 LTG DSNT SW T00390032

FAA Disclaimer: The data displayed is for advisory purposes only and is not to be used for flight planning or operations.